Terminal Aerodrome Forecast
Issued by NWS

Home | Current Version | Previous Version | Text Only | Print | Product List | Glossary On
Versions: 1 2 3 4 5 6 7 8 9 10 11 12 13 14 15
536
FTUS43 KLSX 060520
TAFUIN
TAF
KUIN 060520Z 0606/0706 VRB04KT P6SM SKC
     FM061200 24007KT P6SM SCT100
     FM061800 26012KT P6SM SKC
     FM070000 25007KT P6SM SKC=

USA.gov is the U.S. government's official web portal to all federal, state and local government web resources and services.